createdAt,value
2019-03-11T06:18:03.523Z,23.22
2019-03-11T06:20:41.347Z,22.78
2019-03-11T06:23:11.754Z,22.52
2019-03-11T06:25:42.840Z,22.29
2019-03-11T06:28:12.953Z,22.12
2019-03-11T06:43:14.149Z,21.07
2019-03-11T06:45:43.842Z,20.77
2019-03-11T06:48:13.554Z,20.58
2019-03-11T06:50:43.284Z,20.39
2019-03-11T06:53:12.959Z,20.23
2019-03-11T06:55:42.669Z,20.04
2019-03-11T06:58:12.342Z,19.85
2019-03-11T07:00:42.045Z,19.72
2019-03-11T07:03:11.860Z,19.61
2019-03-11T07:05:41.511Z,19.53
2019-03-11T07:08:11.221Z,19.53
2019-03-11T07:10:41.024Z,19.59
2019-03-11T07:13:10.739Z,19.72
2019-03-11T07:15:40.575Z,19.98
2019-03-11T07:18:10.251Z,20.34
2019-03-11T07:20:39.951Z,20.51
2019-03-11T07:23:09.670Z,20.43
2019-03-11T07:25:39.327Z,20.33
2019-03-11T07:28:09.011Z,20.21
2019-03-11T07:30:38.691Z,20.06
2019-03-11T07:33:08.452Z,19.93
2019-03-11T07:35:38.129Z,19.81
2019-03-11T07:38:07.816Z,19.71
2019-03-11T07:40:37.519Z,19.56
2019-03-11T07:43:07.282Z,19.47
2019-03-11T07:45:37.033Z,19.34
2019-03-11T07:48:06.754Z,19.24
2019-03-11T07:50:36.470Z,19.15
2019-03-11T07:53:06.304Z,19.06
2019-03-11T07:55:36.957Z,18.78
2019-03-11T07:58:06.687Z,18.78
2019-03-11T08:00:36.383Z,18.73
2019-03-11T08:03:06.309Z,18.66
2019-03-11T08:05:35.990Z,18.56
2019-03-11T08:08:05.948Z,18.49
2019-03-11T08:10:36.218Z,18.40
2019-03-11T08:13:07.941Z,18.33
2019-03-11T08:15:37.500Z,18.27
2019-03-11T08:18:07.268Z,18.21
2019-03-11T08:20:37.025Z,18.15
2019-03-11T08:23:06.711Z,18.11
2019-03-11T08:25:36.385Z,18.08
2019-03-11T08:28:06.862Z,18.06
2019-03-11T08:30:36.622Z,18.07
2019-03-11T08:33:06.388Z,18.15
2019-03-11T08:35:36.408Z,18.36
2019-03-11T08:38:06.719Z,18.52
2019-03-11T08:40:36.423Z,18.58
2019-03-11T08:43:06.123Z,18.62
2019-03-11T08:45:35.836Z,18.63
2019-03-11T08:48:05.922Z,18.61
2019-03-11T08:50:35.602Z,18.55
2019-03-11T08:53:05.370Z,18.52
2019-03-11T08:55:35.081Z,18.52
2019-03-11T08:58:04.867Z,18.49
2019-03-11T09:00:34.578Z,18.45
2019-03-11T09:03:04.433Z,18.41
2019-03-11T09:05:34.106Z,18.39
2019-03-11T09:08:03.917Z,18.44
2019-03-11T09:10:33.617Z,18.43
2019-03-11T09:13:03.435Z,18.38
2019-03-11T09:15:33.073Z,18.32
2019-03-11T09:18:02.847Z,18.25
2019-03-11T09:20:32.591Z,18.20
2019-03-11T09:23:02.352Z,18.12
2019-03-11T09:25:32.049Z,18.06
2019-03-11T09:28:01.780Z,18.00
2019-03-11T09:30:31.447Z,17.94
2019-03-11T09:33:01.144Z,17.88
2019-03-11T09:35:31.106Z,17.81
2019-03-11T09:38:00.816Z,17.77
2019-03-11T09:40:30.514Z,17.69
2019-03-11T09:43:00.244Z,17.65
2019-03-11T09:45:29.998Z,17.59
2019-03-11T09:47:59.745Z,17.56
2019-03-11T09:50:29.449Z,17.53
2019-03-11T09:52:59.166Z,17.50
2019-03-11T09:55:28.844Z,17.47
2019-03-11T09:57:58.550Z,17.45
2019-03-11T10:00:28.403Z,17.40
2019-03-11T10:02:58.277Z,17.37
2019-03-11T10:05:28.033Z,17.34
2019-03-11T10:07:57.928Z,17.29
2019-03-11T10:10:27.878Z,17.26
2019-03-11T10:12:57.726Z,17.21
2019-03-11T10:15:27.467Z,17.16
2019-03-11T10:17:57.338Z,17.14
2019-03-11T10:20:27.087Z,17.12
2019-03-11T10:22:56.786Z,17.08
2019-03-11T10:25:26.482Z,17.06
2019-03-11T10:27:56.237Z,17.10
2019-03-11T10:30:26.089Z,17.42
2019-03-11T10:32:55.922Z,19.27
2019-03-11T10:35:33.079Z,20.65
2019-03-11T10:37:56.993Z,21.67
2019-03-11T10:40:26.776Z,23.05
2019-03-11T10:42:56.541Z,23.05
2019-03-11T10:45:31.798Z,23.42
2019-03-11T10:47:57.924Z,23.79
2019-03-11T10:50:27.742Z,23.99
2019-03-11T10:52:57.419Z,23.90
2019-03-11T10:55:27.224Z,23.89
2019-03-11T10:57:56.989Z,23.83
2019-03-11T11:00:27.261Z,23.95
2019-03-11T11:02:57.149Z,23.97
2019-03-11T11:05:26.928Z,24.03
2019-03-11T11:07:56.891Z,23.92
2019-03-11T11:10:26.905Z,23.89
2019-03-11T11:12:56.702Z,23.90
2019-03-11T11:15:26.479Z,23.79
2019-03-11T11:17:56.251Z,23.73
2019-03-11T11:20:26.479Z,23.70
2019-03-11T11:22:56.668Z,23.51
2019-03-11T11:25:26.684Z,23.47
2019-03-11T11:27:56.441Z,23.33
2019-03-11T11:30:26.392Z,23.21
2019-03-11T11:32:56.481Z,23.26
2019-03-11T11:35:26.435Z,23.20
2019-03-11T11:37:56.167Z,23.24
2019-03-11T11:40:25.951Z,23.24
2019-03-11T11:42:55.853Z,23.28
2019-03-11T11:45:25.715Z,23.26
2019-03-11T11:47:55.443Z,23.38
2019-03-11T11:50:25.225Z,23.37
2019-03-11T11:52:56.104Z,23.40
2019-03-11T11:55:26.047Z,23.50
2019-03-11T11:57:55.717Z,23.48
2019-03-11T12:00:28.068Z,23.52
2019-03-11T12:02:57.811Z,23.59
2019-03-11T12:05:27.940Z,23.59
2019-03-11T12:07:57.797Z,23.75
2019-03-11T12:10:27.627Z,23.77
2019-03-11T12:12:57.583Z,23.85
2019-03-11T12:15:27.531Z,23.82
2019-03-11T12:17:57.454Z,23.73
2019-03-11T12:20:27.332Z,23.77
2019-03-11T12:22:57.012Z,23.71
2019-03-11T12:25:26.830Z,23.77
2019-03-11T12:27:58.159Z,23.76
2019-03-11T12:30:28.750Z,23.77
2019-03-11T12:32:58.676Z,23.79
2019-03-11T12:35:28.821Z,23.72
2019-03-11T12:37:58.719Z,23.72
2019-03-11T12:40:28.553Z,23.68
2019-03-11T12:42:58.231Z,23.64
2019-03-11T12:45:27.905Z,23.49
2019-03-11T12:47:58.585Z,23.28
2019-03-11T12:50:28.281Z,23.17
2019-03-11T12:52:58.008Z,23.16
2019-03-11T12:55:27.787Z,23.08
2019-03-11T12:57:57.530Z,23.00
2019-03-11T13:00:27.381Z,22.99
2019-03-11T13:02:57.086Z,22.95
2019-03-11T13:05:26.839Z,22.86
2019-03-11T13:07:56.533Z,22.78
2019-03-11T13:10:26.423Z,22.70
2019-03-11T13:12:56.258Z,22.69
2019-03-11T13:15:26.252Z,22.67
2019-03-11T13:17:56.106Z,22.47
2019-03-11T13:20:30.653Z,22.39
2019-03-11T13:23:00.392Z,22.36
2019-03-11T13:25:30.176Z,22.25
2019-03-11T13:28:03.823Z,22.16
2019-03-11T13:30:34.213Z,22.02
2019-03-11T13:33:04.235Z,21.99
2019-03-11T13:35:34.239Z,21.85
2019-03-11T13:38:04.084Z,21.73
2019-03-11T13:40:33.885Z,21.60
2019-03-11T13:43:03.566Z,21.45
2019-03-11T13:45:33.311Z,21.35
2019-03-11T13:48:03.040Z,21.24
2019-03-11T13:50:32.742Z,21.10
2019-03-11T13:53:02.483Z,20.97
2019-03-11T13:55:32.270Z,20.89
2019-03-11T13:58:01.950Z,20.87
2019-03-11T14:00:31.679Z,20.83
2019-03-11T14:03:01.507Z,20.74
2019-03-11T14:05:31.194Z,20.70
2019-03-11T14:08:00.867Z,20.59
2019-03-11T14:10:30.609Z,20.56
2019-03-11T14:13:00.431Z,20.45
2019-03-11T14:15:30.162Z,20.39
2019-03-11T14:17:59.867Z,20.39
2019-03-11T14:20:29.550Z,20.37
2019-03-11T14:22:59.587Z,20.43
2019-03-11T14:25:29.265Z,20.47
2019-03-11T14:27:58.973Z,20.57
2019-03-11T14:30:28.637Z,20.61
2019-03-11T14:32:58.331Z,20.70
2019-03-11T14:35:28.030Z,20.86
2019-03-11T14:37:57.718Z,21.01
2019-03-11T14:40:27.461Z,21.76
2019-03-11T14:42:57.244Z,22.01
2019-03-11T14:45:26.905Z,22.52
2019-03-11T14:47:59.609Z,23.09
2019-03-11T14:50:32.239Z,23.65
2019-03-11T14:53:01.976Z,24.16
2019-03-11T14:55:31.708Z,24.37
2019-03-11T14:58:01.442Z,24.53
2019-03-11T15:00:31.185Z,24.58
2019-03-11T15:03:00.960Z,24.79
2019-03-11T15:05:30.704Z,24.69
2019-03-11T15:08:00.465Z,24.83
2019-03-11T15:10:30.188Z,24.76
2019-03-11T15:12:59.946Z,24.90
2019-03-11T15:15:29.704Z,24.81
2019-03-11T15:17:59.388Z,24.79
2019-03-11T15:20:29.139Z,24.79
2019-03-11T15:23:06.218Z,24.74
2019-03-11T15:25:30.261Z,24.66
2019-03-11T15:27:59.978Z,24.38
2019-03-11T15:30:29.748Z,24.34
2019-03-11T15:32:59.499Z,24.35
2019-03-11T15:35:29.153Z,24.31
2019-03-11T15:37:58.876Z,24.25
2019-03-11T15:40:28.542Z,24.17
2019-03-11T15:42:58.333Z,24.08
2019-03-11T15:46:20.839Z,23.95
2019-03-11T15:48:50.519Z,23.88
2019-03-11T15:51:20.195Z,23.75
2019-03-11T15:53:49.903Z,23.62
2019-03-11T15:56:19.576Z,23.55
2019-03-11T15:58:49.299Z,23.42
2019-03-11T16:01:20.568Z,23.28
2019-03-11T16:03:51.491Z,23.15
2019-03-11T16:06:21.247Z,23.09
2019-03-11T16:08:50.935Z,22.98
2019-03-11T16:11:20.599Z,22.80
2019-03-11T16:13:50.349Z,22.66
2019-03-11T16:16:21.004Z,22.49
2019-03-11T16:18:50.727Z,22.35
2019-03-11T16:21:20.437Z,22.24
2019-03-11T16:23:50.184Z,22.10
2019-03-11T16:26:19.844Z,22.00
2019-03-11T16:28:49.601Z,21.83
2019-03-11T16:33:37.211Z,21.76
2019-03-11T16:36:06.969Z,20.90
2019-03-11T16:38:36.698Z,20.42
2019-03-11T16:41:06.538Z,20.76
2019-03-11T16:43:36.351Z,20.92
2019-03-11T16:46:06.182Z,20.94
2019-03-11T16:48:35.928Z,21.22
2019-03-11T16:51:05.614Z,21.35
2019-03-11T16:53:35.321Z,21.23
2019-03-11T16:56:05.062Z,21.76
2019-03-11T16:59:21.044Z,22.60
2019-03-11T17:01:50.790Z,22.04
2019-03-11T17:04:22.421Z,22.45
2019-03-11T17:06:52.198Z,22.89
2019-03-11T17:09:21.930Z,23.01
2019-03-11T17:11:51.731Z,22.50
2019-03-11T17:14:21.456Z,22.50
2019-03-11T17:16:51.251Z,22.45
2019-03-11T17:19:21.027Z,22.52
2019-03-11T17:21:50.952Z,22.71
2019-03-11T17:24:20.721Z,22.59
2019-03-11T17:29:31.878Z,22.79
2019-03-11T17:32:08.199Z,22.53
2019-03-11T17:34:37.971Z,22.84
2019-03-11T17:37:08.118Z,22.77
2019-03-11T17:39:37.936Z,22.82
2019-03-11T17:42:08.047Z,22.51
2019-03-11T17:44:38.040Z,22.48
2019-03-11T17:47:07.868Z,22.70
2019-03-11T17:49:37.567Z,23.01
2019-03-11T17:52:07.313Z,22.87
2019-03-11T17:54:37.031Z,22.99
2019-03-11T17:57:06.902Z,23.30
2019-03-11T17:59:36.670Z,22.63
2019-03-11T18:02:06.558Z,23.11
2019-03-11T18:04:36.434Z,23.17
2019-03-11T18:07:06.147Z,22.62
2019-03-11T18:09:35.861Z,22.39
2019-03-11T18:12:05.663Z,22.19
2019-03-11T18:14:35.371Z,23.55
2019-03-11T18:17:05.286Z,23.89
2019-03-11T18:19:35.010Z,23.95
2019-03-11T18:22:04.819Z,23.82
2019-03-11T18:24:34.605Z,23.55
2019-03-11T18:27:04.333Z,24.20
2019-03-11T18:29:34.080Z,24.76
2019-03-11T18:32:03.887Z,25.34
2019-03-11T18:34:33.610Z,25.29
2019-03-11T18:37:03.422Z,25.24
2019-03-11T18:39:33.142Z,25.02
2019-03-11T18:42:02.931Z,24.86
2019-03-11T18:44:32.641Z,24.36
2019-03-11T18:47:02.399Z,24.16
2019-03-11T18:49:32.105Z,23.91
2019-03-11T18:52:01.868Z,24.16
2019-03-11T18:54:31.636Z,24.09
2019-03-11T18:57:01.325Z,24.20
2019-03-11T18:59:30.992Z,24.26
2019-03-11T19:02:00.737Z,24.08
2019-03-11T19:04:30.447Z,24.23
2019-03-11T19:07:00.146Z,24.19
2019-03-11T19:09:29.821Z,24.82
2019-03-11T19:11:59.642Z,24.89
2019-03-11T19:14:29.502Z,24.94
2019-03-11T19:16:59.315Z,25.21
2019-03-11T19:19:29.064Z,25.26
2019-03-11T19:21:58.821Z,25.39
2019-03-11T19:24:28.621Z,25.31
2019-03-11T19:26:58.390Z,25.28
2019-03-11T19:29:28.229Z,25.48
2019-03-11T19:31:58.028Z,25.39
2019-03-11T19:34:27.754Z,25.76
2019-03-11T19:36:57.469Z,25.84
2019-03-11T19:39:27.177Z,25.97
2019-03-11T19:41:56.990Z,26.15
2019-03-11T19:44:26.802Z,25.79
2019-03-11T19:46:56.522Z,25.95
2019-03-11T19:49:27.337Z,25.81
2019-03-11T19:51:57.056Z,25.79
2019-03-11T19:54:26.735Z,25.65
2019-03-11T19:56:56.455Z,25.68
2019-03-11T19:59:26.168Z,25.48
2019-03-11T20:01:55.866Z,25.75
2019-03-11T20:04:25.655Z,26.19
2019-03-11T20:06:55.409Z,25.97
2019-03-11T20:09:25.316Z,26.80
2019-03-11T20:11:55.011Z,27.38
2019-03-11T20:14:24.794Z,27.71
2019-03-11T20:30:57.145Z,27.76
2019-03-11T20:33:26.983Z,28.11
2019-03-11T20:35:56.630Z,28.19
2019-03-11T20:38:26.443Z,28.16
2019-03-11T20:40:56.154Z,28.30
2019-03-11T20:43:27.072Z,28.23
2019-03-11T20:45:56.750Z,28.01
2019-03-11T20:48:26.502Z,28.49
2019-03-11T20:50:56.210Z,28.56
2019-03-11T20:53:26.081Z,28.62
2019-03-11T20:55:55.820Z,28.69
2019-03-11T20:58:25.653Z,28.68
2019-03-11T21:00:55.425Z,28.69
2019-03-11T21:03:25.219Z,28.74
2019-03-11T21:05:55.030Z,28.62
2019-03-11T21:08:24.840Z,28.59
2019-03-11T21:10:54.588Z,28.65
2019-03-11T21:13:24.267Z,28.48
2019-03-11T21:15:54.277Z,28.49
2019-03-11T21:18:23.936Z,28.37
2019-03-11T21:21:04.222Z,28.27
2019-03-11T21:23:26.159Z,28.12
2019-03-11T21:25:56.945Z,28.01
2019-03-11T21:28:26.974Z,27.81
2019-03-11T21:30:56.760Z,27.73
2019-03-11T21:33:26.562Z,27.62
2019-03-11T21:35:56.459Z,27.50
2019-03-11T21:38:26.171Z,27.33
2019-03-11T21:40:55.930Z,27.25
2019-03-11T21:43:25.632Z,27.18
2019-03-11T21:45:55.345Z,27.17
2019-03-11T21:48:25.085Z,27.01
2019-03-11T21:50:54.810Z,27.10
2019-03-11T21:53:24.481Z,27.17
2019-03-11T21:55:54.247Z,27.17
2019-03-11T21:58:23.858Z,27.18
2019-03-11T22:00:53.764Z,27.15
2019-03-11T22:03:23.445Z,27.23
2019-03-11T22:05:53.143Z,27.22
2019-03-11T22:08:22.835Z,27.26
2019-03-11T22:10:52.508Z,27.29
2019-03-11T22:13:22.217Z,27.16
2019-03-11T22:15:51.964Z,27.18
2019-03-11T22:18:21.642Z,27.09
2019-03-11T22:20:51.340Z,27.02
2019-03-11T22:23:21.021Z,26.96
2019-03-11T22:25:50.759Z,26.93
2019-03-11T22:28:21.135Z,26.93
2019-03-11T22:30:50.869Z,26.98
2019-03-11T22:33:20.574Z,26.87
2019-03-11T22:35:50.262Z,26.93
2019-03-11T22:38:19.982Z,26.91
2019-03-11T22:40:49.672Z,26.78
2019-03-11T22:43:19.522Z,26.65
2019-03-11T22:45:49.321Z,26.61
2019-03-11T22:48:20.912Z,26.66
2019-03-11T22:50:50.450Z,26.63
2019-03-11T22:53:20.141Z,26.66
2019-03-11T22:55:49.937Z,26.65
2019-03-11T22:58:19.624Z,26.64
2019-03-11T23:00:54.868Z,26.63
2019-03-11T23:03:26.877Z,26.61
2019-03-11T23:05:58.557Z,26.56
2019-03-11T23:08:28.616Z,26.57
2019-03-11T23:10:58.396Z,26.45
2019-03-11T23:13:28.103Z,26.58
2019-03-11T23:15:57.866Z,26.63
2019-03-11T23:18:27.561Z,26.73
2019-03-11T23:20:57.362Z,26.74
2019-03-11T23:23:27.065Z,26.89
2019-03-11T23:25:56.764Z,26.92
2019-03-11T23:28:26.635Z,26.96
2019-03-11T23:30:56.329Z,27.01
2019-03-11T23:33:26.106Z,27.08
2019-03-11T23:35:55.793Z,27.21
2019-03-11T23:38:25.476Z,27.24
2019-03-11T23:40:55.191Z,27.29
2019-03-11T23:43:24.934Z,27.35
2019-03-11T23:45:54.633Z,27.39
2019-03-11T23:48:24.574Z,27.38
2019-03-11T23:50:54.307Z,27.48
2019-03-11T23:53:24.017Z,27.56
2019-03-11T23:55:53.737Z,27.59
2019-03-11T23:58:23.512Z,27.54
